Time;durP1;ratioP1;P1;durP2;ratioP2;P2;SDS_P1;SDS_P2;PMS_P1;PMS_P2;Temp;Humidity;BMP_temperature;BMP_pressure;BME280_temperature;BME280_humidity;BME280_pressure;Samples;Min_cycle;Max_cycle;Signal;HPM_P1;HPM_P2
2022/08/06 00:02:00;;;;;;;;;8.67;8.00;;;;;21.34;69.20;100801.03;5017764;28;45465;-78
2022/08/06 00:04:26;;;;;;;;;9.00;8.67;;;;;21.33;69.03;100793.97;5035938;28;45523;-78
2022/08/06 00:06:51;;;;;;;;;7.00;7.00;;;;;21.23;68.60;100785.22;5028672;28;45980;-77
2022/08/06 00:09:17;;;;;;;;;7.33;7.33;;;;;21.06;69.44;100757.94;5017877;28;45473;-78
2022/08/06 00:11:42;;;;;;;;;7.67;6.67;;;;;21.14;68.83;100764.03;5032702;28;45505;-78
2022/08/06 00:14:08;;;;;;;;;7.00;7.00;;;;;20.98;69.03;100743.84;5035820;28;45644;-78
2022/08/06 00:16:34;;;;;;;;;9.33;7.33;;;;;21.13;68.80;100762.31;5021299;28;45697;-78
2022/08/06 00:19:00;;;;;;;;;6.00;6.00;;;;;21.20;69.10;100779.03;5017353;28;45528;-78
2022/08/06 00:21:25;;;;;;;;;6.00;5.00;;;;;20.79;69.14;100708.63;5055534;28;45262;-78
2022/08/06 00:23:51;;;;;;;;;6.00;6.00;;;;;21.15;68.91;100773.78;5026541;28;45336;-78
2022/08/06 00:26:16;;;;;;;;;6.00;5.00;;;;;21.12;68.94;100771.16;5017463;28;46179;-78
2022/08/06 00:28:42;;;;;;;;;8.33;7.33;;;;;20.55;69.19;100668.13;5016891;28;45331;-78
2022/08/06 00:31:08;;;;;;;;;8.00;7.00;;;;;20.75;69.11;100710.44;5016878;28;45343;-77
2022/08/06 00:33:34;;;;;;;;;8.00;7.00;;;;;21.05;69.13;100758.84;5026820;28;45238;-78
2022/08/06 00:36:00;;;;;;;;;6.00;6.00;;;;;20.92;69.22;100727.97;5034889;28;46287;-78
2022/08/06 00:38:26;;;;;;;;;6.00;5.00;;;;;20.56;69.49;100679.63;5034046;28;45592;-77
2022/08/06 00:40:53;;;;;;;;;7.00;7.00;;;;;20.53;69.23;100666.34;5022923;28;45397;-78
2022/08/06 00:43:19;;;;;;;;;7.33;7.33;;;;;20.94;69.01;100729.72;5036911;28;45405;-77
2022/08/06 00:45:45;;;;;;;;;8.67;8.00;;;;;20.39;69.17;100639.94;5022264;28;45419;-78
2022/08/06 00:48:10;;;;;;;;;7.33;7.00;;;;;20.53;69.12;100679.63;5016446;28;45430;-78
2022/08/06 00:50:36;;;;;;;;;7.33;7.33;;;;;20.39;69.22;100667.38;5021904;28;45391;-78
2022/08/06 00:53:03;;;;;;;;;7.33;7.00;;;;;20.74;70.30;100743.19;5036050;28;45337;-77
2022/08/06 00:55:30;;;;;;;;;8.00;7.67;;;;;20.48;70.28;100702.69;5068138;28;46875;-78
2022/08/06 00:57:55;;;;;;;;;7.67;6.67;;;;;19.96;70.42;100622.63;5036500;28;45385;-78
2022/08/06 01:00:21;;;;;;;;;7.33;6.33;;;;;20.48;70.17;100697.38;5035717;28;45467;-78
2022/08/06 01:02:46;;;;;;;;;8.33;8.00;;;;;20.42;70.46;100699.19;5037302;28;45425;-78
2022/08/06 01:05:12;;;;;;;;;8.67;8.33;;;;;20.22;70.86;100670.16;5036822;28;45466;-78
2022/08/06 01:07:38;;;;;;;;;8.00;7.33;;;;;20.16;70.50;100656.06;5036839;28;45531;-78
2022/08/06 01:10:04;;;;;;;;;7.33;7.33;;;;;20.21;70.67;100656.91;5037058;28;45456;-77
2022/08/06 01:12:30;;;;;;;;;7.00;7.00;;;;;20.51;70.58;100713.25;5037076;28;45580;-78
2022/08/06 01:14:55;;;;;;;;;9.00;9.00;;;;;20.50;70.39;100706.22;5036773;28;45958;-78
2022/08/06 01:17:33;;;;;;;;;7.33;7.33;;;;;20.50;70.34;100698.25;5028707;28;45501;-77
2022/08/06 01:20:18;;;;;;;;;8.00;7.00;;;;;20.50;70.38;100700.91;5033257;28;45485;-77
2022/08/06 01:23:12;;;;;;;;;8.33;7.67;;;;;20.16;70.38;100659.59;5038701;28;45421;-78
2022/08/06 01:26:16;;;;;;;;;7.33;7.33;;;;;20.43;70.85;100711.56;5027641;28;46508;-78
2022/08/06 01:28:46;;;;;;;;;9.33;8.33;;;;;19.89;70.88;100622.66;5019424;28;45524;-77
2022/08/06 01:31:19;;;;;;;;;7.00;7.00;;;;;20.41;70.50;100712.44;5031038;28;45512;-78
2022/08/06 01:33:52;;;;;;;;;8.67;8.67;;;;;20.35;71.30;100716.06;5039166;28;45478;-77
2022/08/06 01:36:29;;;;;;;;;7.00;7.00;;;;;20.08;71.01;100674.69;5035692;28;46216;-78
2022/08/06 01:38:58;;;;;;;;;9.00;7.67;;;;;20.30;71.03;100707.25;5019853;28;45536;-77
2022/08/06 01:41:38;;;;;;;;;8.00;7.00;;;;;20.31;70.63;100706.31;5032024;28;45471;-78
2022/08/06 01:44:07;;;;;;;;;8.67;8.00;;;;;20.22;70.90;100690.50;5036564;28;45247;-77
2022/08/06 01:46:39;;;;;;;;;9.00;9.00;;;;;19.96;70.91;100635.00;5025120;28;46944;-78
2022/08/06 01:49:07;;;;;;;;;8.67;8.33;;;;;20.31;70.90;100690.41;5031361;28;45417;-78
2022/08/06 01:51:34;;;;;;;;;10.33;9.00;;;;;19.78;71.09;100609.50;5033215;28;45567;-77
2022/08/06 01:54:02;;;;;;;;;12.00;9.00;;;;;20.26;70.98;100693.09;5018756;28;45465;-77
2022/08/06 01:56:32;;;;;;;;;8.00;8.00;;;;;20.14;71.29;100660.50;5019097;28;45451;-78
2022/08/06 01:59:02;;;;;;;;;9.67;8.33;;;;;19.79;71.72;100617.41;5018887;28;45458;-77
2022/08/06 02:01:30;;;;;;;;;8.67;8.67;;;;;19.59;72.38;100614.88;5019579;28;45367;-78
2022/08/06 02:03:58;;;;;;;;;9.00;8.00;;;;;19.96;72.22;100667.69;5030860;28;45607;-77
2022/08/06 02:06:33;;;;;;;;;8.00;8.00;;;;;19.98;72.21;100684.47;5034330;28;45508;-77
2022/08/06 02:09:02;;;;;;;;;8.00;7.00;;;;;19.98;72.28;100683.59;5029019;28;45560;-77
2022/08/06 02:11:28;;;;;;;;;7.00;6.67;;;;;19.62;72.36;100625.47;5032726;28;45303;-77
2022/08/06 02:13:57;;;;;;;;;9.67;8.00;;;;;20.00;72.03;100674.72;5019506;28;45499;-77
2022/08/06 02:16:25;;;;;;;;;10.33;8.00;;;;;19.12;71.85;100518.03;5033719;28;45596;-77
2022/08/06 02:18:52;;;;;;;;;10.33;9.33;;;;;19.95;72.26;100668.56;5037843;28;45310;-77
2022/08/06 02:21:21;;;;;;;;;12.67;12.00;;;;;19.37;72.88;100584.97;5038012;28;45580;-77
2022/08/06 02:23:49;;;;;;;;;11.00;11.00;;;;;19.50;72.88;100620.25;5038483;28;45354;-77
2022/08/06 02:26:16;;;;;;;;;10.33;10.33;;;;;19.80;73.03;100666.91;5038238;28;45523;-78
2022/08/06 02:28:45;;;;;;;;;8.33;7.33;;;;;19.79;73.14;100667.78;5034576;28;45307;-77
2022/08/06 02:31:11;;;;;;;;;9.33;9.33;;;;;19.81;73.23;100657.19;5021098;28;45450;-78
2022/08/06 02:33:37;;;;;;;;;7.67;7.33;;;;;19.80;72.97;100660.75;5030387;28;45406;-78
2022/08/06 02:36:03;;;;;;;;;11.33;9.33;;;;;19.79;72.68;100651.00;5022058;28;46395;-77
2022/08/06 02:38:53;;;;;;;;;9.33;9.33;;;;;19.76;72.69;100661.66;5037313;28;45678;-77
2022/08/06 02:41:27;;;;;;;;;8.00;8.00;;;;;19.64;72.68;100642.22;5038329;28;45277;-77
2022/08/06 02:43:58;;;;;;;;;8.00;8.00;;;;;19.55;72.96;100628.16;5022837;28;45496;-78
2022/08/06 02:46:28;;;;;;;;;11.67;10.33;;;;;19.56;73.06;100630.81;5022815;28;46515;-77
2022/08/06 02:49:03;;;;;;;;;8.33;8.00;;;;;19.54;73.03;100634.34;5029104;28;45414;-77
2022/08/06 02:51:37;;;;;;;;;8.00;8.00;;;;;19.63;72.96;100647.53;5032247;28;45529;-77
2022/08/06 02:54:12;;;;;;;;;9.33;8.00;;;;;19.64;72.80;100655.47;5037734;28;45581;-78
2022/08/06 02:56:44;;;;;;;;;9.67;8.33;;;;;19.62;73.06;100657.25;5037535;28;46251;-77
2022/08/06 02:59:11;;;;;;;;;10.67;9.67;;;;;19.57;73.57;100664.34;5023770;28;45693;-78
2022/08/06 03:01:48;;;;;;;;;11.33;11.00;;;;;19.49;73.46;100658.22;5033477;28;45324;-77
2022/08/06 03:04:15;;;;;;;;;12.00;10.33;;;;;18.98;73.22;100575.44;5033629;28;45244;-78
2022/08/06 03:06:45;;;;;;;;;9.00;9.00;;;;;19.24;73.38;100613.31;5018099;28;46261;-77
2022/08/06 03:09:12;;;;;;;;;8.33;8.00;;;;;19.19;73.29;100620.38;5018028;28;45659;-77
2022/08/06 03:11:40;;;;;;;;;9.33;9.33;;;;;19.50;73.24;100645.84;5018132;28;45561;-77
2022/08/06 03:14:08;;;;;;;;;9.00;9.00;;;;;19.42;73.73;100645.91;5025535;28;45372;-78
2022/08/06 03:16:36;;;;;;;;;8.00;8.00;;;;;18.83;72.94;100550.81;5026082;28;45475;-77
2022/08/06 03:19:04;;;;;;;;;9.00;8.00;;;;;18.81;73.73;100544.63;5033332;28;45372;-78
2022/08/06 03:21:32;;;;;;;;;8.67;8.67;;;;;19.25;73.77;100632.72;5037760;28;45426;-77
2022/08/06 03:24:00;;;;;;;;;8.33;7.67;;;;;19.36;73.38;100641.50;5029803;28;45422;-78
2022/08/06 03:26:28;;;;;;;;;9.00;9.00;;;;;19.34;74.04;100650.31;5029884;28;45275;-77
2022/08/06 03:28:56;;;;;;;;;7.67;6.33;;;;;18.81;73.61;100559.66;5020941;28;45342;-77
2022/08/06 03:31:26;;;;;;;;;14.00;12.00;;;;;19.34;74.18;100648.56;5025146;28;45516;-77
2022/08/06 03:33:53;;;;;;;;;9.00;9.00;;;;;19.19;73.65;100623.03;5027084;28;45563;-77
2022/08/06 03:36:21;;;;;;;;;11.00;11.00;;;;;19.24;74.14;100649.50;5036853;28;45369;-77
2022/08/06 03:39:00;;;;;;;;;11.00;10.00;;;;;18.88;74.21;100594.03;5020901;28;45563;-77
2022/08/06 03:41:29;;;;;;;;;9.33;8.67;;;;;18.87;73.92;100586.09;5028953;28;45409;-77
2022/08/06 03:43:54;;;;;;;;;11.33;10.33;;;;;17.24;73.85;100327.31;5017881;28;45357;-78
2022/08/06 03:46:27;;;;;;;;;10.33;9.00;;;;;19.17;74.34;100643.34;5017383;28;45508;-77
2022/08/06 03:48:54;;;;;;;;;11.67;11.33;;;;;19.16;74.05;100644.22;5017496;28;45386;-77
2022/08/06 03:51:23;;;;;;;;;9.67;9.33;;;;;19.14;74.23;100646.00;5025863;28;45738;-77
2022/08/06 03:53:51;;;;;;;;;10.33;9.00;;;;;19.01;74.35;100620.44;5024361;28;45585;-77
2022/08/06 03:56:23;;;;;;;;;10.33;10.33;;;;;19.13;74.13;100638.06;5017743;28;45585;-77
2022/08/06 03:58:52;;;;;;;;;12.33;9.00;;;;;19.17;74.47;100634.50;5024285;28;45520;-77
2022/08/06 04:01:23;;;;;;;;;10.67;9.67;;;;;19.04;74.15;100608.09;5020853;28;45520;-78
2022/08/06 04:03:50;;;;;;;;;11.67;11.00;;;;;19.20;73.92;100627.44;5017879;28;45429;-77
2022/08/06 04:06:19;;;;;;;;;11.33;9.00;;;;;18.96;73.73;100586.06;5022488;28;45486;-77
2022/08/06 04:08:46;;;;;;;;;11.00;11.00;;;;;19.20;73.35;100622.16;5035262;28;45660;-78
2022/08/06 04:11:12;;;;;;;;;8.67;8.67;;;;;19.03;73.18;100603.66;5017263;28;45507;-77
2022/08/06 04:13:41;;;;;;;;;8.33;7.00;;;;;19.14;73.26;100621.28;5017189;28;45542;-78
2022/08/06 04:16:07;;;;;;;;;9.33;8.33;;;;;19.11;73.46;100619.53;5030689;28;46146;-77
2022/08/06 04:18:36;;;;;;;;;12.00;12.00;;;;;18.71;74.03;100576.41;5018719;28;45573;-77
2022/08/06 04:21:04;;;;;;;;;11.67;9.33;;;;;18.72;74.17;100570.22;5055325;28;45504;-77
2022/08/06 04:23:30;;;;;;;;;10.67;10.00;;;;;18.35;73.75;100499.78;5067393;28;45691;-77
2022/08/06 04:25:59;;;;;;;;;11.33;10.00;;;;;18.61;73.64;100557.03;5022501;28;45910;-77
2022/08/06 04:28:27;;;;;;;;;8.00;8.00;;;;;18.95;73.93;100612.53;5025628;28;45413;-78
2022/08/06 04:30:54;;;;;;;;;10.33;9.33;;;;;18.59;73.60;100551.75;5016502;28;45485;-78
2022/08/06 04:33:22;;;;;;;;;10.33;10.00;;;;;18.90;73.98;100595.78;5029312;28;45374;-78
2022/08/06 04:35:48;;;;;;;;;12.50;11.50;;;;;18.63;73.75;100564.06;5019485;28;45521;-77
2022/08/06 04:38:17;;;;;;;;;11.00;11.00;;;;;18.96;73.96;100623.13;5016910;28;45467;-77
2022/08/06 04:40:43;;;;;;;;;10.00;8.33;;;;;18.42;73.81;100540.31;5033551;28;45346;-78
2022/08/06 04:43:11;;;;;;;;;11.67;10.67;;;;;18.96;73.71;100632.81;5023563;28;45485;-78
2022/08/06 04:45:39;;;;;;;;;11.67;10.67;;;;;18.95;73.84;100634.59;5017773;28;46233;-77
2022/08/06 04:48:08;;;;;;;;;10.33;9.33;;;;;18.82;73.46;100615.22;5036521;28;45438;-77
2022/08/06 04:50:35;;;;;;;;;10.33;10.00;;;;;18.44;73.98;100565.00;5026862;28;45366;-78
2022/08/06 04:53:10;;;;;;;;;10.00;10.00;;;;;18.79;74.23;100612.56;5021835;28;46491;-77
2022/08/06 04:55:37;;;;;;;;;12.67;11.00;;;;;18.87;73.92;100634.59;5025477;28;46212;-77
2022/08/06 04:58:04;;;;;;;;;12.33;11.00;;;;;18.38;74.08;100547.41;5031130;28;45480;-77
2022/08/06 05:00:35;;;;;;;;;9.67;8.33;;;;;18.90;74.07;100638.13;5032448;28;45578;-77
2022/08/06 05:03:00;;;;;;;;;11.00;10.33;;;;;18.68;74.55;100612.59;5027973;28;45511;-77
2022/08/06 05:05:28;;;;;;;;;8.67;8.33;;;;;18.78;74.54;100637.25;5016307;28;46023;-78
2022/08/06 05:07:56;;;;;;;;;12.00;11.67;;;;;18.75;74.72;100634.59;5030792;28;46069;-77
2022/08/06 05:10:26;;;;;;;;;10.67;10.67;;;;;18.48;74.23;100587.91;5020769;28;46793;-78
2022/08/06 05:12:55;;;;;;;;;12.00;11.00;;;;;18.80;74.45;100643.47;5026800;28;45461;-78
2022/08/06 05:15:31;;;;;;;;;11.67;10.67;;;;;18.38;74.43;100579.13;5015903;28;46135;-77
2022/08/06 05:18:04;;;;;;;;;10.67;9.33;;;;;18.87;74.59;100650.47;5031733;28;45448;-78
2022/08/06 05:20:34;;;;;;;;;11.67;10.67;;;;;18.51;74.01;100576.47;5023293;28;45477;-77
2022/08/06 05:23:03;;;;;;;;;10.33;10.33;;;;;18.99;73.68;100638.13;5036018;28;45477;-78
2022/08/06 05:25:31;;;;;;;;;12.67;10.67;;;;;18.78;73.30;100599.31;5034333;28;45646;-77
2022/08/06 05:27:57;;;;;;;;;9.67;8.33;;;;;19.02;73.23;100641.63;5020474;28;45449;-77
2022/08/06 05:30:22;;;;;;;;;11.00;10.33;;;;;19.00;73.16;100647.78;5027470;28;45374;-78
2022/08/06 05:32:49;;;;;;;;;12.00;11.00;;;;;19.03;73.55;100655.75;5016485;28;45476;-77
2022/08/06 05:35:15;;;;;;;;;11.67;10.67;;;;;18.97;73.33;100627.50;5016042;28;45387;-77
2022/08/06 05:37:41;;;;;;;;;12.67;11.33;;;;;19.17;73.16;100655.69;5016141;28;45478;-77
2022/08/06 05:40:07;;;;;;;;;11.00;10.67;;;;;19.19;73.32;100649.50;5016554;28;45409;-78
2022/08/06 05:42:34;;;;;;;;;10.33;9.33;;;;;19.20;72.95;100651.28;5019003;28;45620;-77
2022/08/06 05:44:59;;;;;;;;;12.50;11.00;;;;;19.21;72.98;100644.22;5019346;28;46257;-77
2022/08/06 05:47:30;;;;;;;;;12.33;11.33;;;;;19.22;73.38;100653.94;5027764;28;45455;-78
2022/08/06 05:50:04;;;;;;;;;12.00;11.33;;;;;19.21;73.27;100652.16;5027849;28;45391;-77
2022/08/06 05:52:42;;;;;;;;;9.00;8.67;;;;;19.30;73.09;100654.78;5018520;28;45513;-77
2022/08/06 05:55:30;;;;;;;;;12.67;11.67;;;;;19.21;72.49;100609.78;5022308;28;45702;-77
2022/08/06 05:58:05;;;;;;;;;11.00;9.67;;;;;19.40;71.78;100626.47;5021705;28;45462;-77
2022/08/06 06:00:33;;;;;;;;;10.67;9.67;;;;;19.76;71.95;100659.00;5031152;28;45480;-77
2022/08/06 06:03:02;;;;;;;;;12.00;11.33;;;;;19.71;70.95;100623.66;5017835;28;45579;-77
2022/08/06 06:05:30;;;;;;;;;11.00;9.00;;;;;20.06;70.78;100655.25;5016875;28;46324;-77
2022/08/06 06:07:56;;;;;;;;;8.00;8.00;;;;;20.25;70.29;100662.19;5019150;28;45608;-77
2022/08/06 06:10:24;;;;;;;;;9.00;9.00;;;;;20.33;70.08;100638.22;5019145;28;45364;-77
2022/08/06 06:12:50;;;;;;;;;9.00;9.00;;;;;20.57;69.43;100641.53;5018676;28;45246;-77
2022/08/06 06:15:17;;;;;;;;;9.67;9.67;;;;;20.69;68.35;100622.00;5028496;28;45657;-77
2022/08/06 06:17:49;;;;;;;;;12.33;11.00;;;;;21.01;68.46;100654.41;5033813;28;45320;-77
2022/08/06 06:20:49;;;;;;;;;8.67;8.33;;;;;21.17;67.56;100638.25;5018742;28;45532;-77
2022/08/06 06:23:25;;;;;;;;;12.33;12.00;;;;;21.67;66.14;100658.03;5031918;28;45596;-78
2022/08/06 06:26:12;;;;;;;;;11.33;10.00;;;;;23.50;61.49;100654.84;5037307;28;45556;-77
2022/08/06 06:29:07;;;;;;;;;9.00;8.00;;;;;25.71;57.92;100650.03;5028971;28;45793;-78
2022/08/06 06:31:44;;;;;;;;;9.00;9.00;;;;;27.37;52.82;100652.44;5033538;28;45496;-78
2022/08/06 06:34:23;;;;;;;;;8.33;8.33;;;;;28.65;48.42;100650.88;5035727;28;45458;-78
2022/08/06 06:37:04;;;;;;;;;8.00;7.00;;;;;29.59;44.91;100651.13;5018761;28;46427;-78
2022/08/06 06:40:09;;;;;;;;;7.67;7.67;;;;;29.48;44.49;100628.28;5024218;28;45385;-78
2022/08/06 06:42:40;;;;;;;;;7.67;7.67;;;;;29.73;44.25;100656.75;5031851;28;45366;-78
2022/08/06 06:45:12;;;;;;;;;8.00;7.00;;;;;30.26;43.43;100664.03;5019002;28;45632;-78
2022/08/06 06:47:47;;;;;;;;;8.33;7.00;;;;;31.21;42.17;100666.31;5018403;28;45492;-77
2022/08/06 06:50:21;;;;;;;;;8.00;7.00;;;;;31.79;41.61;100632.50;5033364;28;45301;-78
2022/08/06 06:52:51;;;;;;;;;7.67;7.67;;;;;32.10;40.15;100644.28;5018372;28;45585;-78
2022/08/06 06:55:29;;;;;;;;;7.33;7.00;;;;;32.97;38.75;100667.94;5032948;28;45378;-78
2022/08/06 06:58:06;;;;;;;;;8.00;7.00;;;;;33.99;38.70;100661.50;5022263;28;45696;-78
2022/08/06 07:00:34;;;;;;;;;8.00;7.67;;;;;34.36;35.19;100645.47;5027873;28;45371;-78
2022/08/06 07:03:01;;;;;;;;;8.00;8.00;;;;;35.23;33.41;100677.41;5031907;28;45500;-78
2022/08/06 07:05:29;;;;;;;;;6.00;5.67;;;;;35.06;35.34;100650.59;5037071;28;45312;-78
2022/08/06 07:07:57;;;;;;;;;7.00;6.33;;;;;33.75;36.42;100672.13;5020874;28;45573;-78
2022/08/06 07:10:24;;;;;;;;;9.33;8.67;;;;;32.07;38.83;100642.66;5031006;28;45181;-78
2022/08/06 07:12:50;;;;;;;;;7.00;6.50;;;;;31.11;40.64;100683.94;5019641;28;45474;-78
2022/08/06 07:15:19;;;;;;;;;7.00;7.00;;;;;30.75;41.52;100675.97;5038392;28;45442;-77
2022/08/06 07:17:47;;;;;;;;;6.33;5.67;;;;;32.69;38.86;100685.00;5021012;28;46223;-77
2022/08/06 07:20:13;;;;;;;;;8.00;7.00;;;;;33.92;37.16;100655.59;5031126;28;45434;-77
2022/08/06 07:22:42;;;;;;;;;6.33;6.33;;;;;35.27;33.90;100669.06;5020323;28;45403;-77
2022/08/06 07:25:12;;;;;;;;;10.00;9.00;;;;;36.30;32.99;100677.81;5030265;28;45512;-78
2022/08/06 07:27:42;;;;;;;;;5.67;5.67;;;;;37.31;30.51;100689.00;5017229;28;45437;-78
2022/08/06 07:30:08;;;;;;;;;5.00;5.00;;;;;37.99;29.19;100665.25;5017777;28;45504;-77
2022/08/06 07:32:35;;;;;;;;;5.67;5.67;;;;;38.74;28.39;100695.41;5022175;28;45233;-78
2022/08/06 07:35:04;;;;;;;;;5.67;5.67;;;;;39.66;27.36;100692.75;5029837;28;45519;-78
2022/08/06 07:37:31;;;;;;;;;6.67;6.00;;;;;39.96;27.87;100636.25;5017633;28;47486;-78
2022/08/06 07:40:00;;;;;;;;;5.33;5.00;;;;;40.99;27.70;100683.19;5017917;28;45516;-78
2022/08/06 07:42:27;;;;;;;;;6.33;5.00;;;;;41.00;27.09;100671.22;5017399;28;45573;-78
2022/08/06 07:44:59;;;;;;;;;4.67;4.67;;;;;38.98;28.09;100689.69;5017650;28;45257;-78
2022/08/06 07:47:32;;;;;;;;;7.67;7.67;;;;;36.16;31.20;100600.00;5049324;28;46462;-78
2022/08/06 07:49:59;;;;;;;;;5.00;4.33;;;;;34.93;33.67;100656.00;5019968;28;45398;-78
2022/08/06 07:52:25;;;;;;;;;6.67;5.00;;;;;34.69;34.36;100657.72;5020580;28;45311;-78
2022/08/06 07:54:54;;;;;;;;;5.67;5.33;;;;;34.41;34.71;100675.88;5030852;28;45418;-78
2022/08/06 07:57:20;;;;;;;;;5.00;3.33;;;;;34.62;34.83;100685.25;5017376;28;45464;-78
2022/08/06 07:59:46;;;;;;;;;4.00;3.33;;;;;34.32;34.03;100682.81;5017316;28;45545;-78
2022/08/06 08:02:12;;;;;;;;;3.67;3.33;;;;;33.35;35.98;100682.78;5018898;28;45648;-77
2022/08/06 08:07:24;;;;;;;;;4.00;3.00;;;;;32.62;36.90;100680.91;5029763;28;45508;-77
2022/08/06 08:09:51;;;;;;;;;3.33;3.00;;;;;32.93;36.70;100689.84;5019058;28;45453;-77
2022/08/06 08:12:19;;;;;;;;;6.67;5.00;;;;;33.75;35.76;100689.22;5033610;28;45458;-78
2022/08/06 08:14:46;;;;;;;;;2.00;2.00;;;;;32.96;37.05;100701.34;5017181;28;45367;-78
2022/08/06 08:17:14;;;;;;;;;4.00;3.00;;;;;32.42;37.55;100696.44;5020918;28;46248;-77
2022/08/06 08:19:40;;;;;;;;;5.00;3.67;;;;;31.79;38.19;100664.91;5027207;28;45475;-78
2022/08/06 08:22:10;;;;;;;;;0.00;0.00;;;;;31.37;39.59;100665.47;5031787;28;45639;-78
2022/08/06 08:24:37;;;;;;;;;5.00;4.00;;;;;31.23;39.56;100687.81;5016613;28;45319;-78
2022/08/06 08:27:08;;;;;;;;;3.00;2.67;;;;;30.88;40.03;100690.56;5041356;28;46901;-78
2022/08/06 08:29:34;;;;;;;;;4.00;4.00;;;;;30.61;40.55;100664.06;5016271;28;45557;-78
2022/08/06 08:32:01;;;;;;;;;4.00;3.33;;;;;30.57;40.86;100678.66;5017069;28;45612;-79
2022/08/06 08:34:26;;;;;;;;;4.00;4.00;;;;;30.27;41.79;100644.19;5016703;28;45388;-79
2022/08/06 08:36:52;;;;;;;;;6.00;5.00;;;;;30.31;41.82;100643.13;5029318;28;45362;-78
2022/08/06 08:39:17;;;;;;;;;3.67;3.00;;;;;30.54;41.36;100673.44;5020851;28;45632;-79
2022/08/06 08:41:55;;;;;;;;;4.00;4.00;;;;;30.53;41.75;100682.47;5031039;28;45543;-79
2022/08/06 08:44:24;;;;;;;;;3.33;3.00;;;;;30.52;41.58;100678.91;5026694;28;45397;-79
2022/08/06 08:46:51;;;;;;;;;3.67;3.67;;;;;30.57;41.86;100678.66;5020896;28;46356;-77
2022/08/06 08:49:28;;;;;;;;;6.00;4.33;;;;;30.37;41.51;100676.97;5031821;28;45497;-78
2022/08/06 08:51:55;;;;;;;;;5.00;5.00;;;;;30.28;41.88;100666.63;5024810;28;45402;-77
2022/08/06 08:54:23;;;;;;;;;3.67;3.67;;;;;30.29;41.59;100658.47;5023764;28;45421;-77
2022/08/06 08:56:50;;;;;;;;;5.00;4.00;;;;;29.99;41.76;100646.53;5032157;28;46016;-77
2022/08/06 08:59:16;;;;;;;;;5.00;4.00;;;;;30.23;42.44;100677.63;5016106;28;45562;-78
2022/08/06 09:01:42;;;;;;;;;6.00;5.00;;;;;30.53;42.16;100677.06;5025567;28;45446;-77
2022/08/06 09:04:08;;;;;;;;;4.00;4.00;;;;;30.59;41.85;100657.88;5036029;28;45515;-77
2022/08/06 09:06:36;;;;;;;;;5.00;3.00;;;;;30.93;41.16;100675.00;5019161;28;45724;-77
2022/08/06 09:09:03;;;;;;;;;4.00;4.00;;;;;31.26;40.40;100679.56;5029163;28;45836;-78
2022/08/06 09:11:33;;;;;;;;;5.00;4.00;;;;;31.24;40.19;100625.66;5024771;28;45412;-77
2022/08/06 09:14:04;;;;;;;;;6.00;5.67;;;;;31.45;40.27;100676.75;5031724;28;45417;-78
2022/08/06 09:16:32;;;;;;;;;4.00;3.67;;;;;31.79;40.82;100678.44;5034295;28;46246;-78
2022/08/06 09:18:58;;;;;;;;;3.33;3.33;;;;;32.10;39.25;100672.19;5028640;28;45436;-78
2022/08/06 09:21:24;;;;;;;;;2.67;2.67;;;;;32.41;39.11;100675.78;5015111;28;45422;-78
2022/08/06 09:23:49;;;;;;;;;3.67;3.67;;;;;32.55;38.61;100666.91;5016388;28;45508;-78
2022/08/06 09:26:15;;;;;;;;;3.00;3.00;;;;;32.69;38.35;100669.63;5017614;28;45438;-78
2022/08/06 09:28:43;;;;;;;;;4.67;4.33;;;;;32.78;37.80;100667.31;5034155;28;45436;-78
2022/08/06 09:31:11;;;;;;;;;3.00;3.00;;;;;33.35;35.78;100626.78;5034906;28;45503;-78
2022/08/06 09:33:39;;;;;;;;;5.67;3.33;;;;;35.05;33.83;100667.84;5034123;28;45473;-78
2022/08/06 09:36:08;;;;;;;;;4.33;3.33;;;;;35.60;33.84;100619.56;5034292;28;46053;-78
2022/08/06 09:38:54;;;;;;;;;3.67;3.33;;;;;36.16;31.14;100657.13;5033552;28;45640;-77
2022/08/06 09:41:22;;;;;;;;;8.33;8.33;;;;;36.55;31.07;100661.34;5036984;28;45477;-78
2022/08/06 09:43:50;;;;;;;;;4.67;3.67;;;;;36.91;31.18;100667.66;5059998;28;45641;-78
2022/08/06 09:46:17;;;;;;;;;3.00;3.00;;;;;37.35;29.87;100663.25;5031978;28;45477;-78
2022/08/06 09:49:00;;;;;;;;;6.00;5.00;;;;;37.47;29.41;100645.03;5037298;28;46104;-78
2022/08/06 09:51:26;;;;;;;;;3.00;3.00;;;;;37.34;30.14;100653.31;5038674;28;45492;-76
2022/08/06 09:53:57;;;;;;;;;4.67;3.00;;;;;37.59;29.51;100660.41;5038885;28;45521;-76
2022/08/06 09:56:23;;;;;;;;;3.33;3.33;;;;;38.44;29.07;100649.72;5039005;28;46269;-76
2022/08/06 09:58:49;;;;;;;;;3.00;3.00;;;;;38.79;28.77;100650.28;5038680;28;45490;-76
2022/08/06 10:01:21;;;;;;;;;2.33;2.33;;;;;39.00;27.81;100660.38;5038052;28;45172;-76
2022/08/06 10:03:48;;;;;;;;;4.33;4.33;;;;;38.90;27.85;100649.34;5038126;28;45457;-77
2022/08/06 10:06:16;;;;;;;;;2.67;2.67;;;;;39.22;27.55;100651.13;5038075;28;45460;-76
2022/08/06 10:08:43;;;;;;;;;3.67;3.00;;;;;39.25;27.79;100637.19;5038364;28;45427;-77
2022/08/06 10:11:09;;;;;;;;;4.00;3.00;;;;;39.87;26.70;100656.25;5038485;28;45434;-77
2022/08/06 10:13:37;;;;;;;;;3.00;2.67;;;;;40.14;26.85;100653.69;5038672;28;45476;-77
2022/08/06 10:16:20;;;;;;;;;5.00;5.00;;;;;39.94;26.97;100641.03;5037090;28;46379;-77
2022/08/06 10:18:48;;;;;;;;;3.67;2.33;;;;;40.24;25.33;100658.31;5070086;28;45413;-76
2022/08/06 10:21:17;;;;;;;;;5.00;4.00;;;;;38.99;27.14;100656.75;5038132;28;45426;-76
2022/08/06 10:23:48;;;;;;;;;2.67;2.67;;;;;38.95;27.61;100648.94;5038049;28;45306;-76
2022/08/06 10:26:18;;;;;;;;;4.00;4.00;;;;;39.40;26.65;100643.16;5036644;28;45477;-77
2022/08/06 10:28:46;;;;;;;;;3.67;2.67;;;;;38.92;27.29;100643.78;5022342;28;45319;-76
2022/08/06 10:31:14;;;;;;;;;3.00;3.00;;;;;39.29;26.84;100644.09;5025023;28;45553;-77
2022/08/06 10:33:50;;;;;;;;;1.67;1.67;;;;;39.05;26.93;100605.31;5037164;28;45330;-76
2022/08/06 10:36:20;;;;;;;;;5.00;4.00;;;;;39.32;26.66;100629.31;5024606;28;45512;-76
2022/08/06 10:38:49;;;;;;;;;3.67;3.33;;;;;39.62;28.11;100631.16;5033152;28;45656;-76
2022/08/06 10:41:17;;;;;;;;;3.33;3.33;;;;;39.11;27.77;100626.63;5023044;28;45512;-77
2022/08/06 10:43:42;;;;;;;;;5.00;5.00;;;;;38.36;29.02;100628.56;5037527;28;45338;-76
2022/08/06 10:46:14;;;;;;;;;4.00;3.00;;;;;39.18;28.20;100622.34;5023475;28;46066;-77
2022/08/06 10:48:41;;;;;;;;;4.33;4.00;;;;;38.97;27.96;100609.59;5030637;28;45523;-76
2022/08/06 10:51:10;;;;;;;;;6.67;6.33;;;;;38.78;28.39;100612.22;5029238;28;45501;-76
2022/08/06 10:53:39;;;;;;;;;5.00;5.00;;;;;38.43;28.29;100610.66;5018469;28;45501;-76
2022/08/06 10:56:07;;;;;;;;;5.33;5.00;;;;;38.64;28.01;100607.97;5024896;28;45684;-77
2022/08/06 10:58:34;;;;;;;;;5.00;4.33;;;;;38.70;27.63;100614.72;5031580;28;45577;-77
2022/08/06 11:01:02;;;;;;;;;3.67;3.67;;;;;38.24;28.60;100608.63;5020796;28;45485;-75
2022/08/06 11:04:05;;;;;;;;;3.67;3.67;;;;;37.01;29.63;100606.00;5030883;28;45481;-75
2022/08/06 11:07:08;;;;;;;;;6.00;4.33;;;;;37.07;30.69;100598.31;5017283;28;45386;-75
2022/08/06 11:09:33;;;;;;;;;9.67;7.67;;;;;36.76;30.94;100609.81;5025142;28;45436;-75
2022/08/06 11:12:22;;;;;;;;;4.67;4.67;;;;;36.79;31.10;100608.72;5024687;28;45468;-76
2022/08/06 11:14:47;;;;;;;;;4.00;4.00;;;;;36.32;31.56;100594.25;5048307;28;45522;-75
2022/08/06 11:17:13;;;;;;;;;8.00;8.00;;;;;35.61;32.11;100575.09;5022256;28;45894;-75
2022/08/06 11:19:45;;;;;;;;;6.33;6.00;;;;;34.91;33.77;100571.09;5017067;28;45993;-75
2022/08/06 11:22:36;;;;;;;;;4.67;3.67;;;;;34.72;33.95;100597.81;5029114;28;45398;-75
2022/08/06 11:25:11;;;;;;;;;5.33;4.67;;;;;34.62;34.27;100574.03;5036578;28;45306;-75
2022/08/06 11:27:52;;;;;;;;;6.00;4.33;;;;;34.44;34.94;100589.75;5022621;28;45867;-75
2022/08/06 11:30:20;;;;;;;;;4.00;3.33;;;;;34.10;34.89;100591.16;5018475;28;45303;-75
2022/08/06 11:32:49;;;;;;;;;4.00;4.00;;;;;33.82;35.58;100592.16;5017135;28;45241;-75
2022/08/06 11:35:33;;;;;;;;;4.00;3.33;;;;;33.21;36.08;100578.94;5017507;28;45339;-75
2022/08/06 11:38:04;;;;;;;;;4.33;3.67;;;;;33.11;36.82;100564.25;5018313;28;46220;-75